Fort Shaw, Montana
Current Conditions -  °F | °C
As of 7:53 PM on Thursday 27 Nov 2014 (Local Time) from KGTF Reporting Station
Clear Clear  
Wind Chill: 37°   Ceiling: Unl
Heat Index: 43°   Visibility: 10mi
Dew Point: 35°   Wind: 10mph
Humidity: 74%   Direction: 240°WSW
Pressure: 29.69"   Gusts: NA
Location:  47.51°N, 111.82°W
Report Text: KGTF 280253Z 24009KT 10SM CLR 06/02 A2969 RMK AO2 SLP071 T00610017 56014
Loading
Personal Weather Stations






























Interactive Weather Map New forecast layout! Learn more

10-Day Weather Forecast

Advertisements
Track Severe Weather on mobile